Time;durP1;ratioP1;P1;durP2;ratioP2;P2;SDS_P1;SDS_P2;PMS_P1;PMS_P2;Temp;Humidity;BMP_temperature;BMP_pressure;BME280_temperature;BME280_humidity;BME280_pressure;Samples;Min_cycle;Max_cycle;Signal;HPM_P1;HPM_P2
2022/10/03 00:00:20;;;;;;;3.50;1.83;;;18.40;99.90;;;;;;1034221;28;20021;-67
2022/10/03 00:01:11;;;;;;;5.28;2.70;;;18.40;99.90;;;;;;1033962;28;20481;-67
2022/10/03 00:01:45;;;;;;;5.18;2.20;;;18.20;99.90;;;;;;1032768;28;20050;-67
2022/10/03 00:02:45;;;;;;;2.67;1.67;;;18.10;99.90;;;;;;1034721;28;20037;-67
2022/10/03 00:03:49;;;;;;;6.22;2.47;;;18.10;99.90;;;;;;1034774;28;20045;-69
2022/10/03 00:04:36;;;;;;;4.00;1.77;;;18.10;99.90;;;;;;1035026;28;20045;-68
2022/10/03 00:05:10;;;;;;;3.92;1.52;;;18.10;99.90;;;;;;1035180;28;20026;-68
2022/10/03 00:06:08;;;;;;;3.90;1.90;;;18.10;99.90;;;;;;1034298;28;20033;-69
2022/10/03 00:07:16;;;;;;;5.38;2.13;;;18.10;99.90;;;;;;1038073;28;20048;-67
2022/10/03 00:08:08;;;;;;;4.25;1.92;;;18.10;99.90;;;;;;1041169;28;20084;-68
2022/10/03 00:08:41;;;;;;;4.03;1.95;;;18.10;99.90;;;;;;1031538;28;20686;-67
2022/10/03 00:09:45;;;;;;;4.38;2.25;;;18.10;99.90;;;;;;1035483;28;20172;-68
2022/10/03 00:10:40;;;;;;;5.03;2.38;;;18.10;99.90;;;;;;1038372;28;20037;-68
2022/10/03 00:11:28;;;;;;;5.88;2.00;;;18.00;99.90;;;;;;1035442;28;20018;-67
2022/10/03 00:12:34;;;;;;;4.60;2.10;;;18.00;99.90;;;;;;1034067;28;20521;-67
2022/10/03 00:13:19;;;;;;;6.25;2.30;;;18.00;99.90;;;;;;1033222;28;20018;-68
2022/10/03 00:13:59;;;;;;;4.03;1.95;;;18.00;99.90;;;;;;1036900;28;20026;-67
2022/10/03 00:15:06;;;;;;;5.28;1.77;;;18.00;99.90;;;;;;1038725;28;20640;-67
2022/10/03 00:15:54;;;;;;;6.60;1.88;;;18.00;99.90;;;;;;1034838;28;20554;-68
2022/10/03 00:16:48;;;;;;;6.55;2.15;;;18.00;99.90;;;;;;1033886;28;20022;-68
2022/10/03 00:17:40;;;;;;;5.03;1.90;;;18.00;99.90;;;;;;1035184;28;20030;-68
2022/10/03 00:18:33;;;;;;;4.20;1.90;;;17.90;99.90;;;;;;1035987;28;20453;-68
2022/10/03 00:19:36;;;;;;;3.72;2.08;;;17.90;99.90;;;;;;1034877;28;20504;-67
2022/10/03 00:20:15;;;;;;;3.40;1.60;;;17.90;99.90;;;;;;1034617;28;20116;-67
2022/10/03 00:20:54;;;;;;;3.58;2.00;;;17.90;99.90;;;;;;1031358;28;20465;-67
2022/10/03 00:21:49;;;;;;;4.38;1.88;;;17.90;99.90;;;;;;1033694;28;20117;-68
2022/10/03 00:22:31;;;;;;;4.70;2.05;;;17.90;99.90;;;;;;1038540;28;20646;-67
2022/10/03 00:23:17;;;;;;;4.40;1.98;;;17.80;99.90;;;;;;1032700;28;20026;-67
2022/10/03 00:23:57;;;;;;;5.45;2.13;;;17.80;99.90;;;;;;1032118;28;20028;-67
2022/10/03 00:24:48;;;;;;;4.25;1.77;;;17.80;99.90;;;;;;1032596;28;20041;-67
2022/10/03 00:26:25;;;;;;;4.50;2.13;;;17.80;99.90;;;;;;1034984;28;20528;-68
2022/10/03 00:27:16;;;;;;;5.82;2.05;;;17.80;99.90;;;;;;1036813;28;20141;-68
2022/10/03 00:28:17;;;;;;;4.03;1.80;;;17.80;99.90;;;;;;1039777;28;20021;-69
2022/10/03 00:29:08;;;;;;;5.00;2.42;;;17.70;99.90;;;;;;1036382;28;20157;-68
2022/10/03 00:29:38;;;;;;;5.03;1.83;;;17.70;99.90;;;;;;1035458;28;20113;-68
2022/10/03 00:30:15;;;;;;;6.47;2.43;;;17.70;99.90;;;;;;1034131;28;20108;-68
2022/10/03 00:31:01;;;;;;;5.70;1.88;;;17.70;99.90;;;;;;1034356;28;20145;-68
2022/10/03 00:31:41;;;;;;;3.63;1.70;;;17.70;99.90;;;;;;1032864;28;20018;-69
2022/10/03 00:32:42;;;;;;;3.53;1.73;;;17.70;99.90;;;;;;1030257;28;20129;-69
2022/10/03 00:33:25;;;;;;;5.40;2.20;;;17.70;99.90;;;;;;1030927;28;20810;-68
2022/10/03 00:34:23;;;;;;;3.38;1.60;;;17.70;99.90;;;;;;1033477;28;20456;-69
2022/10/03 00:35:19;;;;;;;4.43;1.80;;;17.70;99.90;;;;;;1030660;28;20101;-68
2022/10/03 00:36:11;;;;;;;4.72;1.80;;;17.70;99.90;;;;;;1032172;28;20022;-68
2022/10/03 00:37:19;;;;;;;4.75;2.40;;;17.70;99.90;;;;;;1032433;28;20027;-68
2022/10/03 00:38:07;;;;;;;4.53;2.28;;;17.70;99.90;;;;;;1034950;28;20057;-68
2022/10/03 00:38:56;;;;;;;5.05;2.00;;;17.70;99.90;;;;;;1035997;28;20022;-68
2022/10/03 00:39:54;;;;;;;5.10;2.05;;;17.70;99.90;;;;;;1036264;28;20460;-68
2022/10/03 00:40:48;;;;;;;4.07;1.88;;;17.60;99.90;;;;;;1034117;28;20816;-68
2022/10/03 00:41:58;;;;;;;5.75;2.33;;;17.60;99.90;;;;;;1031458;28;20109;-68
2022/10/03 00:43:05;;;;;;;3.55;1.88;;;17.60;99.90;;;;;;1036041;28;20101;-68
2022/10/03 00:44:21;;;;;;;3.47;1.92;;;17.60;99.90;;;;;;1034017;28;20041;-68
2022/10/03 00:45:00;;;;;;;6.60;2.00;;;17.60;99.90;;;;;;1029879;28;20227;-68
2022/10/03 00:45:38;;;;;;;3.38;1.80;;;17.60;99.90;;;;;;1033667;28;20099;-68
2022/10/03 00:46:24;;;;;;;3.97;1.92;;;17.60;99.90;;;;;;1038610;28;20650;-69
2022/10/03 00:47:13;;;;;;;5.30;1.90;;;17.50;99.90;;;;;;1035290;28;20017;-68
2022/10/03 00:48:13;;;;;;;5.00;2.42;;;17.50;99.90;;;;;;1037803;28;20039;-68
2022/10/03 00:48:58;;;;;;;3.33;1.75;;;17.50;99.90;;;;;;1031991;28;20025;-67
2022/10/03 00:50:08;;;;;;;4.70;2.03;;;17.50;99.90;;;;;;1033689;28;20408;-67
2022/10/03 00:50:47;;;;;;;4.35;1.92;;;17.40;99.90;;;;;;1034133;28;20573;-68
2022/10/03 00:51:44;;;;;;;4.47;1.83;;;17.40;99.90;;;;;;1036406;28;20034;-68
2022/10/03 00:52:41;;;;;;;3.25;1.60;;;17.40;99.90;;;;;;1037208;28;20548;-68
2022/10/03 00:53:28;;;;;;;3.28;1.75;;;17.40;99.90;;;;;;1035723;28;20125;-67
2022/10/03 00:54:33;;;;;;;5.32;2.20;;;17.40;99.90;;;;;;1037740;28;20121;-68
2022/10/03 00:55:34;;;;;;;4.68;2.10;;;17.30;99.90;;;;;;1021993;29;20089;-68
2022/10/03 00:56:14;;;;;;;4.80;2.10;;;17.30;99.90;;;;;;1021802;29;20023;-68
2022/10/03 00:57:18;;;;;;;5.25;2.15;;;17.30;99.90;;;;;;1026577;28;20023;-68
2022/10/03 00:58:23;;;;;;;4.57;2.15;;;17.30;99.90;;;;;;1036119;28;20022;-67
2022/10/03 00:59:11;;;;;;;3.95;1.98;;;17.30;99.90;;;;;;1030800;28;20018;-68
2022/10/03 01:00:13;;;;;;;5.53;2.22;;;17.30;99.90;;;;;;1035230;28;20048;-68
2022/10/03 01:00:50;;;;;;;6.55;1.80;;;17.30;99.90;;;;;;1032145;28;20022;-68
2022/10/03 01:01:33;;;;;;;6.00;2.25;;;17.30;99.90;;;;;;1035929;28;20120;-68
2022/10/03 01:02:24;;;;;;;2.45;1.50;;;17.20;99.90;;;;;;1034571;28;20022;-68
2022/10/03 01:03:23;;;;;;;4.38;1.65;;;17.20;99.90;;;;;;1034308;28;20070;-70
2022/10/03 01:04:07;;;;;;;6.72;1.80;;;17.20;99.90;;;;;;1033269;28;20103;-68
2022/10/03 01:04:58;;;;;;;6.47;2.10;;;17.20;99.90;;;;;;1034044;28;20022;-68
2022/10/03 01:05:45;;;;;;;3.70;1.90;;;17.20;99.90;;;;;;1034248;28;20433;-68
2022/10/03 01:06:30;;;;;;;4.22;1.45;;;17.20;99.90;;;;;;1032379;28;20037;-69
2022/10/03 01:07:22;;;;;;;5.68;2.08;;;17.20;99.90;;;;;;1035224;28;20022;-68
2022/10/03 01:08:15;;;;;;;4.55;1.80;;;17.20;99.90;;;;;;1035969;28;20049;-69
2022/10/03 01:09:05;;;;;;;4.25;1.67;;;17.10;99.90;;;;;;1036039;28;20037;-68
2022/10/03 01:10:08;;;;;;;4.55;1.70;;;17.10;99.90;;;;;;1036066;28;20084;-68
2022/10/03 01:10:41;;;;;;;5.80;1.98;;;17.10;99.90;;;;;;1035664;28;20018;-68
2022/10/03 01:11:45;;;;;;;3.75;1.77;;;17.10;99.90;;;;;;1035201;28;20030;-69
2022/10/03 01:12:43;;;;;;;7.40;2.17;;;17.10;99.90;;;;;;1038416;28;20022;-68
2022/10/03 01:13:45;;;;;;;5.95;2.17;;;17.10;99.90;;;;;;1036971;28;20774;-68
2022/10/03 01:14:27;;;;;;;4.03;2.03;;;17.10;99.90;;;;;;1038314;28;20104;-69
2022/10/03 01:15:15;;;;;;;4.20;1.75;;;17.10;99.90;;;;;;1035144;28;20018;-69
2022/10/03 01:16:18;;;;;;;5.35;1.98;;;17.10;99.90;;;;;;1033022;28;20313;-69
2022/10/03 01:17:26;;;;;;;5.45;2.10;;;17.10;99.90;;;;;;1030257;28;20061;-68
2022/10/03 01:18:32;;;;;;;7.07;1.92;;;17.10;99.90;;;;;;1015184;29;20035;-69
2022/10/03 01:19:25;;;;;;;4.70;2.15;;;17.10;99.90;;;;;;1015132;29;20535;-69
2022/10/03 01:20:14;;;;;;;4.30;1.90;;;17.10;99.90;;;;;;1034963;28;20070;-69
2022/10/03 01:20:50;;;;;;;5.63;2.25;;;17.10;99.90;;;;;;1031660;28;20093;-69
2022/10/03 01:21:50;;;;;;;4.93;1.85;;;17.10;99.90;;;;;;1037368;28;20056;-69
2022/10/03 01:22:41;;;;;;;3.35;1.73;;;17.00;99.90;;;;;;1038396;28;20029;-69
2022/10/03 01:23:48;;;;;;;4.80;1.80;;;17.00;99.90;;;;;;1034445;28;20869;-69
2022/10/03 01:25:13;;;;;;;2.38;1.40;;;17.00;99.90;;;;;;1034211;28;20057;-68
2022/10/03 01:26:00;;;;;;;3.35;1.50;;;17.00;99.90;;;;;;1026711;28;20034;-68
2022/10/03 01:26:31;;;;;;;3.55;2.10;;;17.00;99.90;;;;;;1030129;28;20033;-68
2022/10/03 01:27:09;;;;;;;4.33;1.70;;;16.90;99.90;;;;;;1034018;28;20045;-69
2022/10/03 01:30:58;;;;;;;4.28;2.08;;;16.90;99.90;;;;;;1035015;28;20052;-68
2022/10/03 01:31:40;;;;;;;4.97;1.70;;;16.90;99.90;;;;;;1032830;28;20548;-69
2022/10/03 01:32:27;;;;;;;4.97;1.80;;;16.90;99.90;;;;;;1034925;28;20030;-68
2022/10/03 01:33:09;;;;;;;3.88;2.22;;;16.80;99.90;;;;;;1038175;28;20474;-69
2022/10/03 01:33:49;;;;;;;3.45;1.83;;;16.80;99.90;;;;;;1035376;28;20018;-69
2022/10/03 01:34:43;;;;;;;2.85;1.60;;;16.80;99.90;;;;;;1032758;28;20034;-69
2022/10/03 01:35:22;;;;;;;3.30;1.73;;;16.80;99.90;;;;;;1033329;28;20030;-69
2022/10/03 01:36:09;;;;;;;3.60;1.50;;;16.80;99.90;;;;;;1035287;28;20053;-70
2022/10/03 01:37:00;;;;;;;4.10;1.92;;;16.80;99.90;;;;;;1039538;28;20548;-69
2022/10/03 01:37:56;;;;;;;5.35;1.95;;;16.80;99.90;;;;;;1031645;28;20022;-69
2022/10/03 01:38:40;;;;;;;4.93;1.80;;;16.80;99.90;;;;;;1035772;28;20026;-69
2022/10/03 01:39:33;;;;;;;4.05;1.88;;;16.80;99.90;;;;;;1035843;28;20032;-69
2022/10/03 01:40:24;;;;;;;3.20;1.58;;;16.80;99.90;;;;;;1035179;28;20034;-70
2022/10/03 01:41:02;;;;;;;4.63;1.80;;;16.70;99.90;;;;;;1035283;28;20096;-69
2022/10/03 01:41:57;;;;;;;2.65;1.35;;;16.70;99.90;;;;;;1037713;28;20677;-69
2022/10/03 01:42:43;;;;;;;3.72;1.70;;;16.70;99.90;;;;;;1035560;28;20044;-69
2022/10/03 01:43:23;;;;;;;3.47;1.75;;;16.70;99.90;;;;;;1034273;28;20030;-69
2022/10/03 01:43:59;;;;;;;3.50;1.63;;;16.70;99.90;;;;;;1035570;28;20485;-69
2022/10/03 01:44:43;;;;;;;3.35;1.60;;;16.70;99.90;;;;;;1030015;28;20025;-69
2022/10/03 01:45:36;;;;;;;6.82;1.60;;;16.70;99.90;;;;;;1030895;28;20220;-69
2022/10/03 01:46:18;;;;;;;4.00;1.85;;;16.60;99.90;;;;;;1036120;28;20159;-69
2022/10/03 01:47:15;;;;;;;4.82;1.85;;;16.60;99.90;;;;;;1032717;28;20113;-69
2022/10/03 01:47:50;;;;;;;;;;;16.60;99.90;;;;;;1036217;28;20024;-69
2022/10/03 01:48:36;;;;;;;4.43;2.10;;;16.60;99.90;;;;;;1035626;28;19921;-70
2022/10/03 01:49:16;;;;;;;2.65;1.48;;;16.60;99.90;;;;;;1035563;28;20045;-67
2022/10/03 01:50:03;;;;;;;3.63;1.70;;;16.60;99.90;;;;;;1032841;28;20018;-71
2022/10/03 01:51:04;;;;;;;2.72;1.70;;;16.60;99.90;;;;;;1032071;28;20023;-68
2022/10/03 01:52:10;;;;;;;3.22;1.52;;;16.60;99.90;;;;;;1034233;28;20596;-67
2022/10/03 01:53:03;;;;;;;4.78;2.10;;;16.60;99.90;;;;;;1036604;28;20022;-68
2022/10/03 01:54:05;;;;;;;4.53;1.80;;;16.60;99.90;;;;;;1036164;28;20091;-68
2022/10/03 01:55:00;;;;;;;3.08;1.60;;;16.50;99.90;;;;;;1035439;28;20064;-68
2022/10/03 01:55:54;;;;;;;3.10;1.48;;;16.50;99.90;;;;;;1034600;28;20006;-68
2022/10/03 01:56:43;;;;;;;4.40;1.80;;;16.50;99.90;;;;;;1036691;28;20092;-69
2022/10/03 01:57:20;;;;;;;3.55;1.63;;;16.50;99.90;;;;;;1036337;28;20018;-69
2022/10/03 01:58:06;;;;;;;3.70;1.60;;;16.50;99.90;;;;;;1033805;28;20030;-69
2022/10/03 01:59:05;;;;;;;3.58;1.50;;;16.50;99.90;;;;;;1030987;28;20026;-68
2022/10/03 01:59:54;;;;;;;2.92;1.55;;;16.50;99.90;;;;;;1036679;28;20413;-68
2022/10/03 02:00:33;;;;;;;3.42;1.60;;;16.50;99.90;;;;;;1039193;28;20025;-68
2022/10/03 02:01:24;;;;;;;;;;;16.50;99.90;;;;;;1036299;28;20604;-69
2022/10/03 02:02:18;;;;;;;7.07;1.90;;;16.50;99.90;;;;;;1030117;28;20020;-68
2022/10/03 02:02:58;;;;;;;3.13;1.30;;;16.50;99.90;;;;;;1034873;28;20018;-69
2022/10/03 02:03:45;;;;;;;3.83;1.38;;;16.50;99.90;;;;;;1035221;28;20119;-69
2022/10/03 02:04:46;;;;;;;2.67;1.40;;;16.50;99.90;;;;;;1038712;28;20030;-68
2022/10/03 02:05:35;;;;;;;3.92;1.60;;;16.50;99.90;;;;;;1031196;28;20031;-69
2022/10/03 02:06:20;;;;;;;7.25;1.98;;;16.50;99.90;;;;;;1038347;28;20029;-69
2022/10/03 02:07:00;;;;;;;4.63;1.45;;;16.50;99.90;;;;;;1033031;28;20049;-70
2022/10/03 02:07:53;;;;;;;3.47;1.70;;;16.50;99.90;;;;;;1040403;28;20150;-69
2022/10/03 02:09:06;;;;;;;2.75;1.40;;;16.50;99.90;;;;;;1034947;28;20073;-69
2022/10/03 02:09:48;;;;;;;5.07;1.40;;;16.50;99.90;;;;;;1026302;28;20110;-69
2022/10/03 02:10:28;;;;;;;3.95;1.92;;;16.40;99.90;;;;;;1031208;28;20033;-70
2022/10/03 02:11:07;;;;;;;3.95;1.83;;;16.50;99.90;;;;;;1036567;28;20029;-68
2022/10/03 02:11:58;;;;;;;3.45;1.48;;;16.40;99.90;;;;;;1035007;28;20466;-68
2022/10/03 02:12:39;;;;;;;3.28;1.50;;;16.40;99.90;;;;;;1035857;28;20037;-70
2022/10/03 02:13:37;;;;;;;3.08;1.65;;;16.40;99.90;;;;;;1031231;28;20021;-70
2022/10/03 02:14:30;;;;;;;5.07;1.90;;;16.40;99.90;;;;;;1033882;28;20128;-72
2022/10/03 02:15:33;;;;;;;3.75;1.70;;;16.40;99.90;;;;;;1034854;28;20029;-70
2022/10/03 02:16:13;;;;;;;2.92;1.40;;;16.30;99.90;;;;;;1032821;28;20814;-71
2022/10/03 02:16:58;;;;;;;2.97;1.50;;;16.40;99.90;;;;;;1027439;28;20018;-69
2022/10/03 02:18:01;;;;;;;2.92;1.23;;;16.30;99.90;;;;;;1031006;28;20041;-68
2022/10/03 02:18:48;;;;;;;3.25;1.50;;;16.30;99.90;;;;;;1034260;28;20733;-70
2022/10/03 02:19:28;;;;;;;3.55;1.42;;;16.30;99.90;;;;;;1032769;28;20042;-68
2022/10/03 02:20:17;;;;;;;3.42;1.48;;;16.30;99.90;;;;;;1035749;28;20082;-68
2022/10/03 02:20:56;;;;;;;3.78;1.40;;;16.30;99.90;;;;;;1034785;28;20133;-68
2022/10/03 02:21:31;;;;;;;3.67;1.52;;;16.30;99.90;;;;;;1033326;28;20054;-68
2022/10/03 02:22:01;;;;;;;3.45;1.40;;;16.20;99.90;;;;;;1035226;28;20080;-68
2022/10/03 02:22:50;;;;;;;2.83;1.30;;;16.20;99.90;;;;;;1035350;28;20360;-69
2022/10/03 02:23:38;;;;;;;3.17;1.33;;;16.20;99.90;;;;;;1038971;28;20084;-68
2022/10/03 02:24:14;;;;;;;3.00;1.52;;;16.20;99.90;;;;;;1039203;28;20078;-68
2022/10/03 02:24:51;;;;;;;4.05;1.60;;;16.20;99.90;;;;;;1036774;28;20055;-68
2022/10/03 02:25:40;;;;;;;3.80;1.70;;;16.20;99.90;;;;;;1035233;28;20096;-68
2022/10/03 02:26:44;;;;;;;4.88;1.58;;;16.20;99.90;;;;;;1038735;28;20028;-68
2022/10/03 02:27:29;;;;;;;2.30;1.38;;;16.20;99.90;;;;;;1036462;28;20052;-68
2022/10/03 02:28:08;;;;;;;3.03;1.38;;;16.20;99.90;;;;;;1035589;28;20017;-69
2022/10/03 02:29:11;;;;;;;3.15;1.55;;;16.10;99.90;;;;;;1035127;28;20827;-69
2022/10/03 02:30:27;;;;;;;4.10;1.33;;;16.10;99.90;;;;;;1036139;28;20457;-69
2022/10/03 02:31:05;;;;;;;;;;;16.10;99.90;;;;;;1037289;28;20058;-68
2022/10/03 02:31:44;;;;;;;5.25;1.50;;;16.10;99.90;;;;;;1036492;28;19948;-69
2022/10/03 02:32:33;;;;;;;3.42;1.73;;;16.10;99.90;;;;;;1032918;28;20026;-69
2022/10/03 02:33:26;;;;;;;3.58;1.60;;;16.10;99.90;;;;;;1035901;28;20052;-69
2022/10/03 02:34:15;;;;;;;2.95;1.50;;;16.10;99.90;;;;;;1034571;28;20053;-69
2022/10/03 02:35:13;;;;;;;2.83;1.50;;;16.10;99.90;;;;;;1036474;28;20133;-69
2022/10/03 02:36:07;;;;;;;3.38;1.60;;;16.00;99.90;;;;;;1034976;28;20018;-68
2022/10/03 02:37:02;;;;;;;2.35;1.25;;;16.00;99.90;;;;;;1036053;28;20538;-69
2022/10/03 02:37:51;;;;;;;2.80;1.77;;;16.00;99.90;;;;;;1035113;28;20018;-68
2022/10/03 02:38:51;;;;;;;2.72;1.20;;;16.00;99.90;;;;;;1032233;28;20015;-69
2022/10/03 02:39:37;;;;;;;2.50;1.48;;;16.00;99.90;;;;;;1032968;28;20105;-69
2022/10/03 02:40:47;;;;;;;4.43;1.58;;;16.00;99.90;;;;;;1030954;28;20542;-68
2022/10/03 02:41:37;;;;;;;3.25;1.40;;;16.00;99.90;;;;;;1037256;28;20017;-69
2022/10/03 02:42:50;;;;;;;4.70;1.65;;;16.00;99.90;;;;;;1038449;28;20540;-68
2022/10/03 02:44:07;;;;;;;2.17;1.33;;;16.00;99.90;;;;;;1037410;28;20547;-69
2022/10/03 02:45:15;;;;;;;2.38;1.45;;;16.00;99.90;;;;;;1035987;28;20466;-70
2022/10/03 02:46:03;;;;;;;2.67;1.10;;;16.00;99.90;;;;;;1029360;28;20031;-68
2022/10/03 02:46:43;;;;;;;3.35;1.40;;;16.10;99.90;;;;;;1035610;28;20170;-68
2022/10/03 02:48:00;;;;;;;2.38;1.25;;;16.00;99.90;;;;;;1039043;28;20032;-68
2022/10/03 02:49:01;;;;;;;2.95;1.58;;;16.00;99.90;;;;;;1035366;28;20017;-69
2022/10/03 02:49:52;;;;;;;3.97;1.50;;;16.00;99.90;;;;;;1034201;28;20033;-68
2022/10/03 02:50:50;;;;;;;4.63;1.60;;;16.00;99.90;;;;;;1034846;28;20033;-69
2022/10/03 02:52:01;;;;;;;3.42;1.58;;;16.00;99.90;;;;;;1036161;28;20026;-68
2022/10/03 02:53:00;;;;;;;5.05;1.90;;;16.00;99.90;;;;;;1034763;28;20069;-69
2022/10/03 02:54:05;;;;;;;2.65;1.20;;;16.00;99.90;;;;;;1039296;28;20801;-68
2022/10/03 02:55:05;;;;;;;3.70;1.50;;;15.90;99.90;;;;;;1038584;28;20053;-68
2022/10/03 02:56:02;;;;;;;1.98;1.35;;;15.90;99.90;;;;;;1036378;28;20068;-68
2022/10/03 02:56:36;;;;;;;;;;;15.90;99.90;;;;;;1030780;28;20030;-69
2022/10/03 02:57:09;;;;;;;4.13;1.50;;;15.90;99.90;;;;;;1030527;28;19961;-69
2022/10/03 02:58:00;;;;;;;2.33;1.30;;;15.90;99.90;;;;;;1034983;28;20049;-69
2022/10/03 02:58:49;;;;;;;3.83;1.30;;;15.90;99.90;;;;;;1035932;28;20088;-69
2022/10/03 02:59:46;;;;;;;2.55;1.00;;;15.80;99.90;;;;;;1032175;28;20030;-69
2022/10/03 03:00:31;;;;;;;2.22;1.40;;;15.90;99.90;;;;;;1037633;28;20056;-69
2022/10/03 03:01:37;;;;;;;3.28;1.40;;;15.80;99.90;;;;;;1036634;28;20029;-68
2022/10/03 03:02:26;;;;;;;;;;;15.80;99.90;;;;;;1038304;28;20060;-68
2022/10/03 03:03:42;;;;;;;2.75;1.60;;;15.80;99.90;;;;;;1034741;28;19913;-69
2022/10/03 03:04:55;;;;;;;2.03;1.20;;;15.80;99.90;;;;;;1038803;28;20053;-68
2022/10/03 03:06:03;;;;;;;3.15;1.38;;;15.80;99.90;;;;;;1037171;28;20021;-69
2022/10/03 03:07:07;;;;;;;3.47;1.23;;;15.80;99.90;;;;;;1034425;28;20377;-68
2022/10/03 03:07:57;;;;;;;2.40;1.33;;;15.70;99.90;;;;;;1036041;28;20033;-69
2022/10/03 03:08:57;;;;;;;3.28;1.70;;;15.70;99.90;;;;;;1037406;28;20113;-68
2022/10/03 03:09:46;;;;;;;2.63;1.30;;;15.70;99.90;;;;;;1035246;28;20792;-69
2022/10/03 03:10:58;;;;;;;3.40;1.40;;;15.70;99.90;;;;;;1035680;28;20119;-68
2022/10/03 03:11:47;;;;;;;3.10;1.23;;;15.70;99.90;;;;;;1033179;28;20022;-69
2022/10/03 03:12:26;;;;;;;3.25;1.52;;;15.70;99.90;;;;;;1035425;28;20013;-68
2022/10/03 03:13:15;;;;;;;3.08;1.42;;;15.70;99.90;;;;;;1035143;28;20026;-68
2022/10/03 03:14:17;;;;;;;2.15;1.45;;;15.70;99.90;;;;;;1038261;28;20030;-68
2022/10/03 03:15:18;;;;;;;3.90;1.50;;;15.70;99.90;;;;;;1034772;28;20036;-69
2022/10/03 03:16:26;;;;;;;3.45;1.77;;;15.60;99.90;;;;;;1039057;28;20447;-68
2022/10/03 03:17:24;;;;;;;3.40;1.38;;;15.60;99.90;;;;;;1036694;28;20033;-68
2022/10/03 03:18:10;;;;;;;3.47;1.92;;;15.50;99.90;;;;;;1035273;28;20054;-70
2022/10/03 03:19:28;;;;;;;2.67;1.38;;;15.50;99.90;;;;;;1034019;28;20083;-68
2022/10/03 03:20:29;;;;;;;9.15;1.80;;;15.50;99.90;;;;;;1035798;28;20137;-69
2022/10/03 03:21:13;;;;;;;1.95;1.38;;;15.40;99.90;;;;;;1031937;28;20023;-67
2022/10/03 03:21:54;;;;;;;3.70;1.63;;;15.40;99.90;;;;;;1035556;28;20033;-68
2022/10/03 03:22:46;;;;;;;2.30;1.40;;;15.30;99.90;;;;;;1037052;28;20022;-68
2022/10/03 03:23:36;;;;;;;2.60;1.60;;;15.40;99.90;;;;;;1037855;28;20458;-68
2022/10/03 03:24:22;;;;;;;2.22;1.30;;;15.30;99.90;;;;;;1036948;28;20033;-68
2022/10/03 03:25:37;;;;;;;2.90;1.25;;;15.30;99.90;;;;;;1036836;28;20096;-68
2022/10/03 03:26:39;;;;;;;2.58;1.42;;;15.30;99.90;;;;;;1036267;28;20018;-68
2022/10/03 03:27:35;;;;;;;2.83;1.38;;;15.40;99.90;;;;;;1034214;28;20065;-68
2022/10/03 03:28:21;;;;;;;2.65;1.45;;;15.40;99.90;;;;;;1034310;28;20014;-68
2022/10/03 03:29:22;;;;;;;3.33;1.13;;;15.40;99.90;;;;;;1036637;28;20668;-69
2022/10/03 03:30:07;;;;;;;4.53;1.50;;;15.50;99.90;;;;;;1037622;28;20087;-68
2022/10/03 03:31:12;;;;;;;3.90;1.73;;;15.50;99.90;;;;;;1033859;28;20536;-69
2022/10/03 03:32:07;;;;;;;2.53;1.30;;;15.50;99.90;;;;;;1034082;28;20052;-69
2022/10/03 03:32:52;;;;;;;2.50;1.15;;;15.50;99.90;;;;;;1035392;28;20009;-69
2022/10/03 03:33:38;;;;;;;1.38;1.00;;;15.50;99.90;;;;;;1036059;28;20089;-69
2022/10/03 03:34:41;;;;;;;2.00;1.15;;;15.50;99.90;;;;;;1032494;28;20006;-69
2022/10/03 03:35:19;;;;;;;4.97;1.50;;;15.50;99.90;;;;;;1036490;28;20010;-69
2022/10/03 03:36:00;;;;;;;4.45;1.48;;;15.50;99.90;;;;;;1032474;28;20018;-69
2022/10/03 03:37:02;;;;;;;2.50;1.23;;;15.50;99.90;;;;;;1039682;28;20022;-69
2022/10/03 03:37:45;;;;;;;3.03;1.48;;;15.50;99.90;;;;;;1033786;28;20114;-70
2022/10/03 03:38:29;;;;;;;2.85;1.35;;;15.50;99.90;;;;;;1036883;28;20476;-70
2022/10/03 03:39:18;;;;;;;3.83;1.40;;;15.50;99.90;;;;;;1033643;28;20605;-70
2022/10/03 03:40:12;;;;;;;4.70;1.40;;;15.50;99.90;;;;;;1036006;28;20029;-70
2022/10/03 03:41:19;;;;;;;2.63;1.30;;;15.50;99.90;;;;;;1036434;28;20017;-70
2022/10/03 03:41:53;;;;;;;3.47;1.33;;;15.40;99.90;;;;;;1032988;28;20046;-69
2022/10/03 03:42:47;;;;;;;2.85;1.40;;;15.40;99.90;;;;;;1033137;28;20052;-69
2022/10/03 03:43:54;;;;;;;2.90;1.40;;;15.40;99.90;;;;;;1033392;28;20054;-70
2022/10/03 03:44:46;;;;;;;2.72;1.38;;;15.40;99.90;;;;;;1034007;28;20164;-69
2022/10/03 03:45:45;;;;;;;1.50;1.10;;;15.40;99.90;;;;;;1033955;28;20026;-69
2022/10/03 03:46:25;;;;;;;2.53;1.23;;;15.40;99.90;;;;;;1033511;28;20019;-68
2022/10/03 03:47:17;;;;;;;2.03;1.35;;;15.40;99.90;;;;;;1033963;28;20018;-69
2022/10/03 03:48:11;;;;;;;3.17;1.42;;;15.30;99.90;;;;;;1034740;28;20148;-68
2022/10/03 03:48:58;;;;;;;2.05;1.20;;;15.40;99.90;;;;;;1037496;28;20029;-69
2022/10/03 03:49:48;;;;;;;3.28;1.30;;;15.30;99.90;;;;;;1035780;28;20026;-68
2022/10/03 03:50:56;;;;;;;2.55;1.42;;;15.30;99.90;;;;;;1037258;28;20083;-69
2022/10/03 03:51:42;;;;;;;1.40;1.00;;;15.30;99.90;;;;;;1028394;28;20427;-69
2022/10/03 03:52:31;;;;;;;2.67;1.40;;;15.30;99.90;;;;;;1034956;28;20010;-68
2022/10/03 03:53:30;;;;;;;3.00;1.52;;;15.30;99.90;;;;;;1037324;28;20041;-68
2022/10/03 03:54:13;;;;;;;2.28;1.40;;;15.30;99.90;;;;;;1036830;28;20009;-68
2022/10/03 03:55:01;;;;;;;4.50;1.60;;;15.30;99.90;;;;;;1039814;28;20572;-69
2022/10/03 03:56:09;;;;;;;2.47;1.40;;;15.20;99.90;;;;;;1036383;28;20060;-68
2022/10/03 03:56:48;;;;;;;2.83;1.55;;;15.20;99.90;;;;;;1038363;28;20021;-68
2022/10/03 03:57:49;;;;;;;3.60;1.55;;;15.20;99.90;;;;;;1036736;28;20022;-68
2022/10/03 03:58:34;;;;;;;3.20;1.60;;;15.20;99.90;;;;;;1035170;28;20858;-69
2022/10/03 03:59:26;;;;;;;2.00;1.38;;;15.20;99.90;;;;;;1036757;28;20409;-69
2022/10/03 04:00:06;;;;;;;1.80;1.08;;;15.20;99.90;;;;;;1037184;28;20025;-69
2022/10/03 04:00:56;;;;;;;1.52;1.33;;;15.20;99.90;;;;;;1036363;28;20050;-69
2022/10/03 04:01:37;;;;;;;3.38;1.98;;;15.20;99.90;;;;;;1034155;28;20084;-69
2022/10/03 04:02:32;;;;;;;2.08;1.23;;;15.20;99.90;;;;;;1033392;28;20715;-68
2022/10/03 04:03:39;;;;;;;1.70;1.35;;;15.20;99.90;;;;;;1035728;28;20425;-68
2022/10/03 04:04:32;;;;;;;1.92;1.20;;;15.20;99.90;;;;;;1034930;28;20026;-68
2022/10/03 04:05:39;;;;;;;4.10;1.25;;;15.20;99.90;;;;;;1039431;28;20738;-67
2022/10/03 04:06:39;;;;;;;1.98;1.25;;;15.10;99.90;;;;;;1040293;28;20029;-69
2022/10/03 04:07:43;;;;;;;3.25;1.63;;;15.10;99.90;;;;;;1038824;28;20022;-69
2022/10/03 04:08:29;;;;;;;3.08;1.30;;;15.10;99.90;;;;;;1040881;28;20480;-68
2022/10/03 04:09:11;;;;;;;1.85;1.33;;;15.10;99.90;;;;;;1035995;28;20064;-68
2022/10/03 04:10:11;;;;;;;3.78;1.52;;;15.10;99.90;;;;;;1037356;28;20099;-68
2022/10/03 04:11:11;;;;;;;1.63;1.02;;;15.10;99.90;;;;;;1037265;28;20108;-68
2022/10/03 04:11:48;;;;;;;2.92;1.30;;;15.10;99.90;;;;;;1037645;28;20116;-70
2022/10/03 04:12:44;;;;;;;2.40;1.52;;;15.10;99.90;;;;;;1032065;28;20065;-69
2022/10/03 04:13:35;;;;;;;1.95;1.20;;;15.20;99.90;;;;;;1033036;28;20045;-69
2022/10/03 04:14:35;;;;;;;3.38;1.92;;;15.20;99.90;;;;;;1035689;28;20111;-69
2022/10/03 04:15:20;;;;;;;2.67;1.30;;;15.20;99.90;;;;;;1034378;28;20064;-69
2022/10/03 04:18:58;;;;;;;3.72;1.80;;;15.10;99.90;;;;;;1035549;28;20033;-69
2022/10/03 04:19:38;;;;;;;3.72;1.77;;;15.10;99.90;;;;;;1036529;28;20731;-69
2022/10/03 04:20:20;;;;;;;2.53;1.77;;;15.00;99.90;;;;;;1035547;28;20570;-69
2022/10/03 04:21:06;;;;;;;3.60;1.77;;;15.00;99.90;;;;;;1036366;28;20116;-70
2022/10/03 04:22:11;;;;;;;3.30;1.35;;;14.90;99.90;;;;;;1034747;28;20837;-69
2022/10/03 04:22:59;;;;;;;2.45;1.52;;;15.00;99.90;;;;;;1035801;28;20021;-69
2022/10/03 04:24:00;;;;;;;2.63;1.55;;;14.90;99.90;;;;;;1038785;28;20148;-69
2022/10/03 04:24:53;;;;;;;2.38;1.33;;;14.90;99.90;;;;;;1033221;28;20396;-69
2022/10/03 04:25:41;;;;;;;2.60;1.13;;;14.80;99.90;;;;;;1036407;28;20025;-69
2022/10/03 04:26:21;;;;;;;3.83;1.60;;;14.80;99.90;;;;;;1037335;28;20104;-69
2022/10/03 04:26:51;;;;;;;3.22;1.23;;;14.80;99.90;;;;;;1041275;28;20049;-69
2022/10/03 04:27:22;;;;;;;3.60;1.47;;;14.80;99.90;;;;;;1036066;28;20014;-70
2022/10/03 04:28:33;;;;;;;2.37;1.63;;;14.90;99.90;;;;;;1036907;28;20529;-70
2022/10/03 04:29:10;;;;;;;1.92;1.50;;;14.90;99.90;;;;;;1034473;28;20083;-70
2022/10/03 04:29:43;;;;;;;1.90;1.40;;;14.90;99.90;;;;;;1036724;28;20017;-69
2022/10/03 04:30:39;;;;;;;5.70;1.58;;;14.90;99.90;;;;;;1035679;28;20010;-70
2022/10/03 04:31:15;;;;;;;2.28;1.33;;;14.90;99.90;;;;;;1037387;28;20049;-70
2022/10/03 04:32:08;;;;;;;2.47;1.40;;;14.90;99.90;;;;;;1034778;28;20392;-70
2022/10/03 04:33:00;;;;;;;3.33;1.23;;;14.90;99.90;;;;;;1035689;28;20026;-70
2022/10/03 04:33:42;;;;;;;2.38;1.20;;;14.90;99.90;;;;;;1033554;28;21551;-70
2022/10/03 04:34:49;;;;;;;1.80;1.17;;;14.90;99.90;;;;;;1032223;28;20026;-69
2022/10/03 04:35:38;;;;;;;2.58;1.60;;;14.90;99.90;;;;;;1038309;28;20025;-68